createdAt,value
2022-10-29T00:01:36.163Z,83.00
2022-10-29T00:03:43.091Z,82.90
2022-10-29T00:06:01.295Z,82.30
2022-10-29T00:08:08.222Z,82.00
2022-10-29T00:10:15.048Z,82.10
2022-10-29T00:12:21.607Z,82.10
2022-10-29T00:14:28.242Z,82.10
2022-10-29T00:16:40.153Z,81.20
2022-10-29T00:18:47.764Z,81.20
2022-10-29T00:21:02.415Z,81.10
2022-10-29T00:23:10.769Z,80.50
2022-10-29T00:25:17.391Z,80.00
2022-10-29T00:27:24.245Z,80.20
2022-10-29T00:29:30.791Z,79.80
2022-10-29T00:31:37.887Z,81.30
2022-10-29T00:33:44.437Z,80.00
2022-10-29T00:36:00.034Z,79.90
2022-10-29T00:38:06.659Z,79.00
2022-10-29T00:40:16.862Z,77.80
2022-10-29T00:42:23.469Z,76.90
2022-10-29T00:44:33.513Z,76.30
2022-10-29T00:46:40.530Z,76.50
2022-10-29T00:48:52.745Z,75.60
2022-10-29T00:51:01.027Z,75.80
2022-10-29T00:53:08.147Z,75.40
2022-10-29T00:55:18.183Z,74.80
2022-10-29T00:57:30.155Z,74.40
2022-10-29T00:59:36.955Z,73.90
2022-10-29T01:01:43.794Z,72.90
2022-10-29T01:03:51.308Z,72.80
2022-10-29T01:05:58.401Z,73.50
2022-10-29T01:08:05.174Z,72.50
2022-10-29T01:10:13.278Z,72.40
2022-10-29T01:12:47.669Z,72.70
2022-10-29T01:15:03.736Z,72.50
2022-10-29T01:17:18.133Z,71.70
2022-10-29T01:19:40.605Z,71.60
2022-10-29T01:21:49.026Z,72.30
2022-10-29T01:24:38.249Z,71.90
2022-10-29T01:27:21.190Z,71.90
2022-10-29T01:29:44.643Z,73.40
2022-10-29T01:31:58.502Z,72.70
2022-10-29T01:34:11.909Z,72.80
2022-10-29T01:36:30.439Z,71.70
2022-10-29T01:38:41.806Z,72.20
2022-10-29T01:40:57.902Z,71.30
2022-10-29T01:43:11.190Z,71.00
2022-10-29T01:45:25.319Z,71.80
2022-10-29T01:47:40.293Z,72.20
2022-10-29T01:49:50.794Z,72.30
2022-10-29T01:51:58.882Z,72.20
2022-10-29T01:54:09.403Z,72.60
2022-10-29T01:56:16.186Z,70.40
2022-10-29T01:58:25.177Z,70.30
2022-10-29T02:00:37.199Z,70.00
2022-10-29T02:02:50.201Z,70.60
2022-10-29T02:05:08.807Z,69.50
2022-10-29T02:07:23.444Z,70.50
2022-10-29T02:09:36.954Z,68.00
2022-10-29T02:11:51.246Z,68.70
2022-10-29T02:14:05.431Z,68.00
2022-10-29T02:16:13.244Z,67.10
2022-10-29T02:18:21.867Z,66.60
2022-10-29T02:20:28.649Z,66.60
2022-10-29T02:22:35.316Z,67.40
2022-10-29T02:24:41.877Z,67.10
2022-10-29T02:26:51.329Z,65.60
2022-10-29T02:29:06.960Z,66.30
2022-10-29T02:31:13.641Z,65.90
2022-10-29T02:33:22.483Z,66.40
2022-10-29T02:35:28.993Z,65.10
2022-10-29T02:37:35.530Z,66.30
2022-10-29T02:39:41.991Z,66.30
2022-10-29T02:41:48.661Z,65.60
2022-10-29T02:43:55.108Z,66.10
2022-10-29T02:46:16.075Z,67.10
2022-10-29T02:48:24.442Z,66.40
2022-10-29T02:50:31.249Z,66.30
2022-10-29T02:52:37.703Z,64.50
2022-10-29T02:54:44.199Z,64.00
2022-10-29T02:56:50.629Z,64.50
2022-10-29T02:58:57.106Z,64.90
2022-10-29T03:01:03.811Z,65.30
2022-10-29T03:03:10.334Z,63.20
2022-10-29T03:05:18.626Z,63.30
2022-10-29T03:07:25.418Z,62.70
2022-10-29T03:09:31.895Z,61.90
2022-10-29T03:11:38.391Z,61.30
2022-10-29T03:13:44.863Z,61.50
2022-10-29T03:15:51.358Z,62.60
2022-10-29T03:17:58.059Z,62.30
2022-10-29T03:20:04.806Z,60.90
2022-10-29T03:22:12.924Z,61.10
2022-10-29T03:24:19.389Z,61.70
2022-10-29T03:26:25.839Z,63.40
2022-10-29T03:28:32.701Z,61.80
2022-10-29T03:30:39.174Z,61.10
2022-10-29T03:32:46.477Z,59.40
2022-10-29T03:34:56.081Z,59.20
2022-10-29T03:37:06.005Z,60.90
2022-10-29T03:39:14.137Z,61.10
2022-10-29T03:41:20.806Z,60.70
2022-10-29T03:43:27.380Z,60.30
2022-10-29T03:45:33.849Z,60.20
2022-10-29T03:47:40.904Z,60.70
2022-10-29T03:49:47.584Z,61.40
2022-10-29T03:51:54.130Z,60.30
2022-10-29T03:54:00.630Z,61.90
2022-10-29T03:56:09.611Z,61.30
2022-10-29T03:58:16.692Z,60.80
2022-10-29T04:00:23.302Z,60.80
2022-10-29T04:02:30.673Z,59.50
2022-10-29T04:04:37.155Z,59.30
2022-10-29T04:06:43.889Z,58.50
2022-10-29T04:08:50.386Z,58.00
2022-10-29T04:10:57.185Z,57.90
2022-10-29T04:13:05.405Z,56.70
2022-10-29T04:15:12.729Z,56.70
2022-10-29T04:17:19.245Z,56.20
2022-10-29T04:19:25.738Z,56.60
2022-10-29T04:23:49.418Z,56.80
2022-10-29T04:28:54.424Z,57.50
2022-10-29T04:31:01.021Z,57.30
2022-10-29T04:33:07.524Z,56.40
2022-10-29T04:35:14.356Z,56.20
2022-10-29T04:37:20.857Z,55.90
2022-10-29T04:39:27.445Z,56.80
2022-10-29T04:41:33.915Z,56.60
2022-10-29T04:43:40.861Z,56.20
2022-10-29T04:45:55.289Z,56.50
2022-10-29T04:48:05.044Z,57.30
2022-10-29T04:50:12.176Z,55.70
2022-10-29T04:52:18.661Z,56.40
2022-10-29T04:54:25.111Z,57.20
2022-10-29T04:56:33.007Z,56.50
2022-10-29T04:58:39.568Z,57.10
2022-10-29T05:00:48.420Z,57.80
2022-10-29T05:02:55.901Z,57.20
2022-10-29T05:05:02.659Z,57.40
2022-10-29T05:07:09.604Z,56.40
2022-10-29T05:09:16.303Z,56.30
2022-10-29T05:11:22.959Z,57.20
2022-10-29T05:13:29.447Z,55.90
2022-10-29T05:15:36.946Z,55.80
2022-10-29T05:17:45.016Z,54.60
2022-10-29T05:19:51.584Z,55.40
2022-10-29T05:21:58.052Z,55.50
2022-10-29T05:24:04.556Z,55.90
2022-10-29T05:26:11.000Z,55.50
2022-10-29T05:28:19.990Z,55.50
2022-10-29T05:30:26.432Z,55.40
2022-10-29T05:32:33.288Z,54.80
2022-10-29T05:34:44.426Z,55.50
2022-10-29T05:36:51.426Z,55.20
2022-10-29T05:38:57.883Z,55.90
2022-10-29T05:41:04.618Z,55.70
2022-10-29T05:43:11.254Z,55.70
2022-10-29T05:45:18.501Z,55.50
2022-10-29T05:47:24.947Z,56.10
2022-10-29T05:49:31.661Z,55.90
2022-10-29T05:51:39.787Z,55.50
2022-10-29T05:53:46.293Z,53.80
2022-10-29T05:55:52.804Z,54.30
2022-10-29T05:57:59.974Z,53.00
2022-10-29T06:00:06.796Z,53.40
2022-10-29T06:02:17.687Z,53.20
2022-10-29T06:04:24.333Z,52.50
2022-10-29T06:06:32.135Z,54.40
2022-10-29T06:08:40.397Z,54.30
2022-10-29T06:10:46.943Z,54.50
2022-10-29T06:12:53.692Z,54.20
2022-10-29T06:15:00.576Z,54.80
2022-10-29T06:17:07.037Z,54.50
2022-10-29T06:19:13.478Z,55.00
2022-10-29T06:21:20.385Z,54.70
2022-10-29T06:23:26.888Z,54.80
2022-10-29T06:25:36.519Z,54.60
2022-10-29T06:27:42.970Z,54.20
2022-10-29T06:29:49.427Z,54.30
2022-10-29T06:31:55.884Z,54.60
2022-10-29T06:34:02.659Z,55.00
2022-10-29T06:36:09.862Z,55.10
2022-10-29T06:38:16.623Z,55.20
2022-10-29T06:40:23.152Z,56.10
2022-10-29T06:42:31.669Z,56.00
2022-10-29T06:44:38.129Z,56.60
2022-10-29T06:46:44.619Z,56.60
2022-10-29T06:48:51.086Z,56.90
2022-10-29T06:50:57.569Z,57.00
2022-10-29T06:53:04.810Z,56.80
2022-10-29T06:55:12.208Z,56.60
2022-10-29T06:57:18.644Z,56.80
2022-10-29T06:59:26.814Z,56.50
2022-10-29T07:01:34.202Z,56.90
2022-10-29T07:03:40.737Z,57.70
2022-10-29T07:05:47.500Z,57.70
2022-10-29T07:07:57.874Z,58.10
2022-10-29T07:10:04.909Z,58.10
2022-10-29T07:12:12.451Z,58.00
2022-10-29T07:14:18.934Z,58.40
2022-10-29T07:16:27.089Z,58.90
2022-10-29T07:18:33.783Z,58.90
2022-10-29T07:20:42.197Z,59.20
2022-10-29T07:22:51.004Z,59.10
2022-10-29T07:25:00.277Z,59.50
2022-10-29T07:27:11.137Z,59.90
2022-10-29T07:29:17.667Z,60.00
2022-10-29T07:31:25.784Z,60.50
2022-10-29T07:33:32.946Z,60.70
2022-10-29T07:35:39.896Z,61.10
2022-10-29T07:37:46.410Z,60.90
2022-10-29T07:39:53.079Z,61.30
2022-10-29T07:41:59.605Z,61.70
2022-10-29T07:44:06.096Z,60.60
2022-10-29T07:46:12.594Z,60.20
2022-10-29T07:48:21.605Z,60.50
2022-10-29T07:50:28.072Z,59.60
2022-10-29T07:52:34.552Z,59.90
2022-10-29T07:54:41.006Z,59.70
2022-10-29T07:56:47.920Z,59.80
2022-10-29T07:58:54.863Z,60.80
2022-10-29T08:01:03.376Z,61.60
2022-10-29T08:03:10.803Z,61.00
2022-10-29T08:05:18.999Z,60.70
2022-10-29T08:07:25.656Z,60.90
2022-10-29T08:09:32.092Z,61.10
2022-10-29T08:11:38.533Z,61.30
2022-10-29T08:13:45.042Z,61.50
2022-10-29T08:15:51.676Z,61.40
2022-10-29T08:17:58.836Z,61.70
2022-10-29T08:20:05.332Z,61.80
2022-10-29T08:22:13.413Z,62.10
2022-10-29T08:24:20.757Z,62.10
2022-10-29T08:26:27.202Z,62.90
2022-10-29T08:28:35.809Z,62.80
2022-10-29T08:30:44.911Z,63.60
2022-10-29T08:32:51.409Z,63.30
2022-10-29T08:34:58.280Z,62.90
2022-10-29T08:37:05.689Z,63.50
2022-10-29T08:39:13.805Z,63.70
2022-10-29T08:41:36.671Z,64.10
2022-10-29T08:44:22.415Z,63.80
2022-10-29T08:46:36.317Z,63.80
2022-10-29T08:48:47.451Z,64.20
2022-10-29T08:50:57.810Z,64.70
2022-10-29T08:53:22.858Z,64.30
2022-10-29T08:55:39.369Z,64.50
2022-10-29T08:57:48.843Z,64.60
2022-10-29T09:00:06.097Z,64.70
2022-10-29T09:02:19.114Z,64.80
2022-10-29T09:04:29.837Z,64.80
2022-10-29T09:06:46.125Z,65.10
2022-10-29T09:09:24.439Z,65.50
2022-10-29T09:11:57.965Z,66.20
2022-10-29T09:14:20.145Z,66.60
2022-10-29T09:19:00.076Z,66.70
2022-10-29T09:21:18.535Z,66.90
2022-10-29T09:23:33.306Z,66.80
2022-10-29T09:25:49.476Z,66.70
2022-10-29T09:28:09.399Z,67.00
2022-10-29T09:30:18.800Z,66.80
2022-10-29T09:32:28.838Z,66.90
2022-10-29T09:34:40.631Z,66.90
2022-10-29T09:36:47.158Z,66.40
2022-10-29T09:39:00.203Z,66.00
2022-10-29T09:41:07.852Z,66.30
2022-10-29T09:43:27.726Z,66.70
2022-10-29T09:45:45.488Z,66.70
2022-10-29T09:48:01.240Z,66.90
2022-10-29T09:50:18.658Z,67.00
2022-10-29T09:52:29.348Z,66.90
2022-10-29T09:54:37.020Z,67.00
2022-10-29T09:56:51.687Z,66.90
2022-10-29T09:59:15.278Z,67.00
2022-10-29T10:01:21.958Z,66.60
2022-10-29T10:03:32.813Z,66.70
2022-10-29T10:05:58.995Z,66.40
2022-10-29T10:08:13.976Z,66.60
2022-10-29T10:10:25.639Z,67.20
2022-10-29T10:12:47.489Z,67.20
2022-10-29T10:15:06.248Z,67.30
2022-10-29T10:17:12.902Z,67.50
2022-10-29T10:19:27.412Z,67.50
2022-10-29T10:21:34.909Z,67.60
2022-10-29T10:23:47.275Z,67.60
2022-10-29T10:25:55.790Z,67.80
2022-10-29T10:28:18.435Z,68.10
2022-10-29T10:30:27.860Z,68.20
2022-10-29T10:32:35.134Z,68.10
2022-10-29T10:34:42.227Z,68.20
2022-10-29T10:36:53.510Z,68.70
2022-10-29T10:39:01.486Z,69.00
2022-10-29T10:41:11.539Z,69.10
2022-10-29T10:43:23.429Z,69.20
2022-10-29T10:45:38.040Z,69.60
2022-10-29T10:47:48.789Z,70.80
2022-10-29T10:49:55.435Z,71.20
2022-10-29T10:52:05.733Z,71.00
2022-10-29T10:54:34.321Z,70.40
2022-10-29T10:56:59.374Z,70.20
2022-10-29T10:59:10.551Z,70.10
2022-10-29T11:01:23.440Z,71.00
2022-10-29T11:03:38.072Z,72.20
2022-10-29T11:05:47.704Z,72.10
2022-10-29T11:08:02.362Z,72.00
2022-10-29T11:10:13.538Z,72.60
2022-10-29T11:12:36.369Z,73.20
2022-10-29T11:14:49.646Z,73.90
2022-10-29T11:17:00.534Z,74.00
2022-10-29T11:19:15.673Z,74.20
2022-10-29T11:21:27.807Z,74.10
2022-10-29T11:23:37.262Z,74.70
2022-10-29T11:25:48.166Z,75.90
2022-10-29T11:27:56.191Z,74.60
2022-10-29T11:30:07.060Z,74.30
2022-10-29T11:32:21.115Z,74.00
2022-10-29T11:34:33.236Z,73.80
2022-10-29T11:36:44.569Z,73.90
2022-10-29T11:38:55.223Z,73.80
2022-10-29T11:41:07.528Z,74.00
2022-10-29T11:43:15.412Z,74.00
2022-10-29T11:45:26.348Z,74.30
2022-10-29T11:47:54.497Z,74.60
2022-10-29T11:50:13.173Z,75.00
2022-10-29T11:52:35.537Z,75.30
2022-10-29T11:54:51.731Z,75.40
2022-10-29T11:57:04.308Z,75.50
2022-10-29T11:59:18.346Z,76.70
2022-10-29T12:01:32.285Z,78.70
2022-10-29T12:04:03.811Z,79.30
2022-10-29T12:06:18.724Z,79.10
2022-10-29T12:08:43.232Z,79.50
2022-10-29T12:10:55.896Z,80.30
2022-10-29T12:13:11.198Z,80.60
2022-10-29T12:15:25.405Z,80.50
2022-10-29T12:17:38.360Z,79.80
2022-10-29T12:19:54.782Z,80.30
2022-10-29T12:22:09.182Z,81.00
2022-10-29T12:24:29.198Z,81.10
2022-10-29T12:26:41.838Z,81.90
2022-10-29T12:28:55.853Z,81.90
2022-10-29T12:31:16.906Z,82.00
2022-10-29T12:33:27.529Z,82.20
2022-10-29T12:35:40.586Z,81.40
2022-10-29T12:38:05.040Z,81.20
2022-10-29T12:40:20.368Z,81.30
2022-10-29T12:42:28.944Z,81.80
2022-10-29T12:44:45.191Z,81.90
2022-10-29T12:47:01.325Z,82.10
2022-10-29T12:49:13.449Z,82.60
2022-10-29T12:51:27.442Z,82.60
2022-10-29T12:53:41.973Z,83.30
2022-10-29T12:55:49.292Z,83.30
2022-10-29T12:57:55.719Z,83.10
2022-10-29T13:00:45.389Z,83.30
2022-10-29T13:02:53.025Z,83.70
2022-10-29T13:05:23.331Z,83.50
2022-10-29T13:07:31.863Z,83.90
2022-10-29T13:09:43.043Z,83.70
2022-10-29T13:11:54.863Z,83.70
2022-10-29T13:14:02.856Z,83.50
2022-10-29T13:16:16.246Z,83.20
2022-10-29T13:18:30.181Z,82.50
2022-10-29T13:20:41.585Z,82.20
2022-10-29T13:23:02.881Z,82.80
2022-10-29T13:25:49.517Z,83.90
2022-10-29T13:27:56.042Z,84.10
2022-10-29T13:30:21.215Z,83.40
2022-10-29T13:32:35.821Z,83.30
2022-10-29T13:34:56.674Z,83.10
2022-10-29T13:37:35.746Z,83.50
2022-10-29T13:39:44.374Z,84.50
2022-10-29T13:41:56.654Z,84.50
2022-10-29T13:44:05.528Z,84.90
2022-10-29T13:46:45.473Z,84.80
2022-10-29T13:48:54.051Z,84.80
2022-10-29T13:51:01.943Z,84.40
2022-10-29T13:53:14.593Z,85.00
2022-10-29T13:55:23.866Z,85.10
2022-10-29T13:57:38.389Z,85.10
2022-10-29T13:59:50.525Z,85.30
2022-10-29T14:02:16.587Z,85.20
2022-10-29T14:04:29.813Z,85.30
2022-10-29T14:06:40.805Z,85.80
2022-10-29T14:08:52.279Z,85.70
2022-10-29T14:11:01.697Z,85.40
2022-10-29T14:13:20.589Z,84.60
2022-10-29T14:15:30.254Z,84.20
2022-10-29T14:17:37.114Z,84.20
2022-10-29T14:19:50.207Z,84.90
2022-10-29T14:21:56.695Z,85.30
2022-10-29T14:24:05.696Z,85.50
2022-10-29T14:28:31.935Z,85.30
2022-10-29T14:30:38.513Z,85.40
2022-10-29T14:32:47.307Z,85.70
2022-10-29T14:34:54.372Z,85.30
2022-10-29T14:37:04.869Z,85.40
2022-10-29T14:39:28.795Z,85.20
2022-10-29T14:41:42.128Z,85.10
2022-10-29T14:43:55.160Z,85.40
2022-10-29T14:46:15.666Z,85.50
2022-10-29T14:48:23.094Z,85.80
2022-10-29T14:50:30.899Z,85.90
2022-10-29T14:52:42.019Z,86.10
2022-10-29T14:54:52.612Z,86.20
2022-10-29T14:57:04.357Z,86.40
2022-10-29T14:59:23.780Z,86.30
2022-10-29T15:01:33.628Z,86.30
2022-10-29T15:03:40.224Z,86.30
2022-10-29T15:05:46.710Z,86.20
2022-10-29T15:07:53.759Z,86.50
2022-10-29T15:10:27.425Z,86.50
2022-10-29T15:12:40.637Z,87.10
2022-10-29T15:14:51.589Z,87.30
2022-10-29T15:16:58.108Z,87.50
2022-10-29T15:19:05.217Z,87.50
2022-10-29T15:21:11.703Z,87.40
2022-10-29T15:23:25.285Z,87.40
2022-10-29T15:25:35.399Z,87.50
2022-10-29T15:27:43.674Z,87.70
2022-10-29T15:29:52.385Z,87.70
2022-10-29T15:32:00.412Z,87.70
2022-10-29T15:34:11.799Z,88.00
2022-10-29T15:36:18.674Z,88.00
2022-10-29T15:39:06.242Z,87.80
2022-10-29T15:41:37.725Z,87.50
2022-10-29T15:43:55.772Z,87.60
2022-10-29T15:46:02.830Z,87.80
2022-10-29T15:48:38.042Z,87.80
2022-10-29T15:50:46.207Z,88.30
2022-10-29T15:52:57.711Z,88.30
2022-10-29T15:55:05.095Z,88.10
2022-10-29T15:57:15.331Z,88.10
2022-10-29T15:59:26.545Z,88.30
2022-10-29T16:01:33.249Z,88.60
2022-10-29T16:03:42.102Z,88.70
2022-10-29T16:05:50.584Z,88.70
2022-10-29T16:07:57.120Z,88.70
2022-10-29T16:10:04.312Z,88.50
2022-10-29T16:12:13.413Z,88.40
2022-10-29T16:14:19.922Z,88.40
2022-10-29T16:16:33.971Z,88.50
2022-10-29T16:18:40.644Z,88.40
2022-10-29T16:20:47.934Z,88.30
2022-10-29T16:22:54.593Z,88.50
2022-10-29T16:25:01.730Z,88.60
2022-10-29T16:27:16.566Z,88.50
2022-10-29T16:29:23.396Z,88.30
2022-10-29T16:31:32.671Z,88.50
2022-10-29T16:33:39.524Z,88.80
2022-10-29T16:35:46.202Z,88.90
2022-10-29T16:37:53.082Z,89.00
2022-10-29T16:39:59.560Z,89.00
2022-10-29T16:42:06.068Z,89.20
2022-10-29T16:44:12.833Z,89.30
2022-10-29T16:46:19.395Z,89.30
2022-10-29T16:48:27.971Z,89.40
2022-10-29T16:50:35.777Z,89.40
2022-10-29T16:52:42.481Z,89.40
2022-10-29T16:54:49.009Z,88.60
2022-10-29T16:56:56.158Z,88.00
2022-10-29T16:59:02.572Z,87.50
2022-10-29T17:01:11.400Z,87.20
2022-10-29T17:03:19.454Z,87.40
2022-10-29T17:05:27.850Z,88.00
2022-10-29T17:07:34.311Z,88.50
2022-10-29T17:09:41.111Z,88.70
2022-10-29T17:11:49.550Z,88.70
2022-10-29T17:13:56.042Z,88.90
2022-10-29T17:16:02.952Z,88.80
2022-10-29T17:18:09.441Z,88.70
2022-10-29T17:20:16.188Z,88.60
2022-10-29T17:22:24.297Z,88.60
2022-10-29T17:24:30.857Z,89.00
2022-10-29T17:26:37.728Z,89.20
2022-10-29T17:28:44.223Z,89.20
2022-10-29T17:30:50.713Z,88.90
2022-10-29T17:32:57.516Z,88.70
2022-10-29T17:35:04.445Z,88.70
2022-10-29T17:37:11.037Z,89.00
2022-10-29T17:39:19.157Z,88.80
2022-10-29T17:41:25.634Z,88.80
2022-10-29T17:43:32.643Z,89.00
2022-10-29T17:45:39.232Z,89.40
2022-10-29T17:47:45.742Z,89.40
2022-10-29T17:49:52.456Z,89.50
2022-10-29T17:51:58.897Z,89.70
2022-10-29T17:54:06.268Z,89.90
2022-10-29T17:56:14.387Z,90.30
2022-10-29T17:58:21.524Z,90.20
2022-10-29T18:00:28.513Z,90.40
2022-10-29T18:02:34.958Z,90.60
2022-10-29T18:04:41.465Z,90.90
2022-10-29T18:06:47.931Z,90.90
2022-10-29T18:08:54.643Z,90.60
2022-10-29T18:11:06.309Z,90.80
2022-10-29T18:13:13.848Z,91.10
2022-10-29T18:15:20.594Z,91.50
2022-10-29T18:17:27.376Z,90.40
2022-10-29T18:19:33.852Z,89.90
2022-10-29T18:21:40.623Z,89.90
2022-10-29T18:23:47.102Z,89.80
2022-10-29T18:26:04.425Z,89.80
2022-10-29T18:28:10.910Z,89.80
2022-10-29T18:30:23.666Z,89.60
2022-10-29T18:32:30.114Z,89.60
2022-10-29T18:34:37.275Z,89.60
2022-10-29T18:36:44.208Z,89.90
2022-10-29T18:38:53.691Z,89.80
2022-10-29T18:41:01.207Z,89.80
2022-10-29T18:43:08.050Z,89.90
2022-10-29T18:45:15.166Z,89.90
2022-10-29T18:47:23.277Z,89.90
2022-10-29T18:49:30.140Z,90.20
2022-10-29T18:51:36.562Z,90.30
2022-10-29T18:53:43.072Z,90.00
2022-10-29T18:55:53.691Z,90.10
2022-10-29T18:58:00.148Z,90.30
2022-10-29T19:00:06.738Z,90.20
2022-10-29T19:02:14.789Z,90.30
2022-10-29T19:04:22.961Z,90.60
2022-10-29T19:06:31.463Z,90.80
2022-10-29T19:08:39.133Z,90.90
2022-10-29T19:10:46.544Z,90.90
2022-10-29T19:12:53.016Z,91.10
2022-10-29T19:14:59.761Z,91.10
2022-10-29T19:17:06.188Z,91.40
2022-10-29T19:19:17.219Z,91.40
2022-10-29T19:21:28.911Z,91.30
2022-10-29T19:23:35.765Z,91.30
2022-10-29T19:25:43.529Z,91.20
2022-10-29T19:27:50.725Z,91.50
2022-10-29T19:29:57.177Z,91.50
2022-10-29T19:32:03.633Z,91.60
2022-10-29T19:34:11.286Z,92.00
2022-10-29T19:36:18.431Z,92.00
2022-10-29T19:38:26.580Z,92.10
2022-10-29T19:40:33.146Z,92.40
2022-10-29T19:42:39.617Z,92.20
2022-10-29T19:44:46.068Z,92.10
2022-10-29T19:46:52.571Z,91.90
2022-10-29T19:49:00.238Z,91.90
2022-10-29T19:51:07.262Z,91.90
2022-10-29T19:53:13.744Z,91.80
2022-10-29T19:55:22.040Z,91.80
2022-10-29T19:57:28.479Z,92.00
2022-10-29T19:59:34.923Z,92.50
2022-10-29T20:01:42.662Z,93.10
2022-10-29T20:03:49.851Z,93.40
2022-10-29T20:05:58.902Z,93.40
2022-10-29T20:08:05.413Z,93.60
2022-10-29T20:10:12.579Z,93.70
2022-10-29T20:12:20.747Z,94.00
2022-10-29T20:14:29.174Z,94.00
2022-10-29T20:16:35.871Z,94.00
2022-10-29T20:18:42.360Z,94.10
2022-10-29T20:20:49.103Z,94.20
2022-10-29T20:22:55.812Z,94.30
2022-10-29T20:25:02.483Z,94.30
2022-10-29T20:27:08.916Z,94.40
2022-10-29T20:29:17.350Z,94.20
2022-10-29T20:31:39.994Z,94.30
2022-10-29T20:33:51.562Z,94.30
2022-10-29T20:35:58.103Z,94.30
2022-10-29T20:38:04.599Z,94.50
2022-10-29T20:40:12.409Z,94.60
2022-10-29T20:42:18.823Z,94.60
2022-10-29T20:44:26.933Z,94.60
2022-10-29T20:46:33.389Z,94.50
2022-10-29T20:48:40.224Z,94.60
2022-10-29T20:50:54.527Z,94.70
2022-10-29T20:53:01.002Z,94.80
2022-10-29T20:55:08.161Z,94.90
2022-10-29T20:57:14.912Z,94.90
2022-10-29T20:59:21.357Z,94.80
2022-10-29T21:01:30.136Z,94.60
2022-10-29T21:03:37.058Z,94.30
2022-10-29T21:05:44.126Z,94.10
2022-10-29T21:07:50.559Z,93.90
2022-10-29T21:09:57.153Z,93.80
2022-10-29T21:12:03.641Z,94.10
2022-10-29T21:14:10.633Z,94.30
2022-10-29T21:16:20.637Z,94.60
2022-10-29T21:18:29.011Z,94.90
2022-10-29T21:20:36.064Z,95.00
2022-10-29T21:22:42.931Z,95.10
2022-10-29T21:24:49.376Z,95.00
2022-10-29T21:26:55.842Z,94.60
2022-10-29T21:29:02.275Z,95.00
2022-10-29T21:31:09.090Z,95.30
2022-10-29T21:33:16.107Z,95.60
2022-10-29T21:35:24.677Z,96.00
2022-10-29T21:37:31.097Z,96.00
2022-10-29T21:39:37.565Z,96.20
2022-10-29T21:41:44.218Z,96.20
2022-10-29T21:43:50.883Z,96.20
2022-10-29T21:45:57.578Z,96.10
2022-10-29T21:48:04.178Z,96.10
2022-10-29T21:50:11.437Z,96.10
2022-10-29T21:52:19.575Z,96.50
2022-10-29T21:54:28.364Z,96.40
2022-10-29T21:56:35.082Z,96.30
2022-10-29T21:58:41.552Z,96.30
2022-10-29T22:00:47.995Z,96.60
2022-10-29T22:02:54.465Z,96.70
2022-10-29T22:05:00.933Z,96.80
2022-10-29T22:07:07.389Z,96.70
2022-10-29T22:09:15.553Z,96.80
2022-10-29T22:11:22.017Z,96.70
2022-10-29T22:13:29.213Z,96.60
2022-10-29T22:15:35.683Z,96.50
2022-10-29T22:17:42.124Z,96.20
2022-10-29T22:19:48.574Z,95.80
2022-10-29T22:21:56.986Z,95.80
2022-10-29T22:24:03.463Z,96.10
2022-10-29T22:26:11.819Z,96.40
2022-10-29T22:28:18.475Z,96.30
2022-10-29T22:30:24.957Z,96.60
2022-10-29T22:32:31.764Z,96.60
2022-10-29T22:34:38.508Z,96.70
2022-10-29T22:36:45.030Z,96.70
2022-10-29T22:38:56.410Z,96.70
2022-10-29T22:41:07.412Z,96.60
2022-10-29T22:43:15.740Z,96.40
2022-10-29T22:45:22.164Z,96.30
2022-10-29T22:47:28.588Z,96.40
2022-10-29T22:49:35.060Z,96.30
2022-10-29T22:51:42.012Z,96.30
2022-10-29T22:53:49.126Z,96.20
2022-10-29T22:55:55.987Z,96.10
2022-10-29T22:58:02.437Z,96.00
2022-10-29T23:00:11.982Z,96.20
2022-10-29T23:02:18.555Z,96.20
2022-10-29T23:04:25.245Z,96.40
2022-10-29T23:06:32.256Z,96.40
2022-10-29T23:08:39.099Z,96.30
2022-10-29T23:10:45.870Z,96.00
2022-10-29T23:12:52.320Z,95.70
2022-10-29T23:14:59.195Z,95.50
2022-10-29T23:17:07.300Z,95.10
2022-10-29T23:19:14.616Z,94.80
2022-10-29T23:21:21.620Z,94.60
2022-10-29T23:23:28.633Z,94.90
2022-10-29T23:25:35.106Z,95.00
2022-10-29T23:27:41.547Z,95.10
2022-10-29T23:29:47.944Z,95.10
2022-10-29T23:31:54.415Z,95.40
2022-10-29T23:34:02.504Z,96.00
2022-10-29T23:36:10.714Z,96.20
2022-10-29T23:38:17.571Z,96.60
2022-10-29T23:40:24.005Z,97.00
2022-10-29T23:42:30.511Z,97.10
2022-10-29T23:44:36.989Z,97.20
2022-10-29T23:46:43.436Z,97.10
2022-10-29T23:48:49.921Z,96.80
2022-10-29T23:50:59.002Z,96.80
2022-10-29T23:53:06.157Z,96.60
2022-10-29T23:55:13.148Z,96.60
2022-10-29T23:57:19.615Z,96.50
2022-10-29T23:59:26.084Z,96.30
